sensor_id;sensor_type;location;lat;lon;timestamp;P1;durP1;ratioP1;P2;durP2;ratioP2
30697;SDS011;17448;47.200;10.902;2023-05-07T00:02:21;4.78;;;2.75;;
30697;SDS011;17448;47.200;10.902;2023-05-07T00:04:48;4.15;;;2.97;;
30697;SDS011;17448;47.200;10.902;2023-05-07T00:07:14;6.05;;;2.70;;
30697;SDS011;17448;47.200;10.902;2023-05-07T00:09:40;3.65;;;2.97;;
30697;SDS011;17448;47.200;10.902;2023-05-07T00:12:07;4.78;;;2.63;;
30697;SDS011;17448;47.200;10.902;2023-05-07T00:14:33;6.10;;;2.67;;
30697;SDS011;17448;47.200;10.902;2023-05-07T00:16:59;4.93;;;2.83;;
30697;SDS011;17448;47.200;10.902;2023-05-07T00:19:25;6.60;;;3.08;;
30697;SDS011;17448;47.200;10.902;2023-05-07T00:21:51;4.00;;;2.80;;
30697;SDS011;17448;47.200;10.902;2023-05-07T00:24:22;6.32;;;2.65;;
30697;SDS011;17448;47.200;10.902;2023-05-07T00:26:48;5.28;;;2.60;;
30697;SDS011;17448;47.200;10.902;2023-05-07T00:29:14;5.28;;;2.40;;
30697;SDS011;17448;47.200;10.902;2023-05-07T00:31:40;4.47;;;2.72;;
30697;SDS011;17448;47.200;10.902;2023-05-07T00:34:07;6.20;;;2.88;;
30697;SDS011;17448;47.200;10.902;2023-05-07T00:36:33;5.97;;;2.97;;
30697;SDS011;17448;47.200;10.902;2023-05-07T00:38:59;6.45;;;2.67;;
30697;SDS011;17448;47.200;10.902;2023-05-07T00:41:28;7.10;;;2.70;;
30697;SDS011;17448;47.200;10.902;2023-05-07T00:43:55;4.05;;;2.63;;
30697;SDS011;17448;47.200;10.902;2023-05-07T00:46:22;4.13;;;2.85;;
30697;SDS011;17448;47.200;10.902;2023-05-07T00:48:49;5.43;;;2.75;;
30697;SDS011;17448;47.200;10.902;2023-05-07T00:51:17;5.68;;;2.60;;
30697;SDS011;17448;47.200;10.902;2023-05-07T00:53:43;5.13;;;2.75;;
30697;SDS011;17448;47.200;10.902;2023-05-07T00:56:09;5.53;;;2.85;;
30697;SDS011;17448;47.200;10.902;2023-05-07T00:58:36;5.63;;;2.90;;
30697;SDS011;17448;47.200;10.902;2023-05-07T01:01:02;6.38;;;3.00;;
30697;SDS011;17448;47.200;10.902;2023-05-07T01:03:28;3.97;;;2.80;;
30697;SDS011;17448;47.200;10.902;2023-05-07T01:05:55;4.15;;;2.40;;
30697;SDS011;17448;47.200;10.902;2023-05-07T01:08:22;6.65;;;2.95;;
30697;SDS011;17448;47.200;10.902;2023-05-07T01:10:51;4.22;;;2.60;;
30697;SDS011;17448;47.200;10.902;2023-05-07T01:13:18;7.97;;;3.30;;
30697;SDS011;17448;47.200;10.902;2023-05-07T01:15:45;5.10;;;3.00;;
30697;SDS011;17448;47.200;10.902;2023-05-07T01:18:12;4.22;;;3.20;;
30697;SDS011;17448;47.200;10.902;2023-05-07T01:20:38;5.00;;;2.60;;
30697;SDS011;17448;47.200;10.902;2023-05-07T01:23:04;3.97;;;2.70;;
30697;SDS011;17448;47.200;10.902;2023-05-07T01:25:32;7.05;;;2.95;;
30697;SDS011;17448;47.200;10.902;2023-05-07T01:28:00;9.85;;;3.15;;
30697;SDS011;17448;47.200;10.902;2023-05-07T01:30:29;7.93;;;3.45;;
30697;SDS011;17448;47.200;10.902;2023-05-07T01:33:02;5.55;;;2.72;;
30697;SDS011;17448;47.200;10.902;2023-05-07T01:35:39;4.47;;;2.85;;
30697;SDS011;17448;47.200;10.902;2023-05-07T01:38:06;7.75;;;2.38;;
30697;SDS011;17448;47.200;10.902;2023-05-07T01:40:33;3.00;;;2.38;;
30697;SDS011;17448;47.200;10.902;2023-05-07T01:43:00;5.45;;;2.95;;
30697;SDS011;17448;47.200;10.902;2023-05-07T01:45:28;3.50;;;2.72;;
30697;SDS011;17448;47.200;10.902;2023-05-07T01:47:54;4.45;;;2.80;;
30697;SDS011;17448;47.200;10.902;2023-05-07T01:50:21;3.88;;;2.72;;
30697;SDS011;17448;47.200;10.902;2023-05-07T01:52:47;4.38;;;2.50;;
30697;SDS011;17448;47.200;10.902;2023-05-07T01:55:13;4.95;;;2.40;;
30697;SDS011;17448;47.200;10.902;2023-05-07T01:57:39;9.00;;;3.33;;
30697;SDS011;17448;47.200;10.902;2023-05-07T02:00:07;6.60;;;3.35;;
30697;SDS011;17448;47.200;10.902;2023-05-07T02:02:40;5.07;;;2.47;;
30697;SDS011;17448;47.200;10.902;2023-05-07T02:05:14;4.93;;;2.80;;
30697;SDS011;17448;47.200;10.902;2023-05-07T02:07:41;3.95;;;3.00;;
30697;SDS011;17448;47.200;10.902;2023-05-07T02:10:07;5.88;;;2.60;;
30697;SDS011;17448;47.200;10.902;2023-05-07T02:12:34;5.10;;;2.90;;
30697;SDS011;17448;47.200;10.902;2023-05-07T02:15:00;3.47;;;2.80;;
30697;SDS011;17448;47.200;10.902;2023-05-07T02:17:26;5.95;;;3.10;;
30697;SDS011;17448;47.200;10.902;2023-05-07T02:19:57;3.67;;;2.80;;
30697;SDS011;17448;47.200;10.902;2023-05-07T02:22:23;4.05;;;2.80;;
30697;SDS011;17448;47.200;10.902;2023-05-07T02:24:49;7.63;;;3.10;;
30697;SDS011;17448;47.200;10.902;2023-05-07T02:27:15;5.75;;;2.50;;
30697;SDS011;17448;47.200;10.902;2023-05-07T02:29:43;9.98;;;3.20;;
30697;SDS011;17448;47.200;10.902;2023-05-07T02:32:09;7.38;;;2.95;;
30697;SDS011;17448;47.200;10.902;2023-05-07T02:34:36;3.97;;;2.92;;
30697;SDS011;17448;47.200;10.902;2023-05-07T02:37:02;5.45;;;2.60;;
30697;SDS011;17448;47.200;10.902;2023-05-07T02:39:29;4.40;;;2.70;;
30697;SDS011;17448;47.200;10.902;2023-05-07T02:41:55;5.65;;;2.75;;
30697;SDS011;17448;47.200;10.902;2023-05-07T02:44:21;4.00;;;2.65;;
30697;SDS011;17448;47.200;10.902;2023-05-07T02:46:49;5.15;;;2.75;;
30697;SDS011;17448;47.200;10.902;2023-05-07T02:49:16;5.05;;;2.70;;
30697;SDS011;17448;47.200;10.902;2023-05-07T02:51:43;5.85;;;3.30;;
30697;SDS011;17448;47.200;10.902;2023-05-07T02:54:15;5.38;;;2.85;;
30697;SDS011;17448;47.200;10.902;2023-05-07T02:56:43;3.55;;;2.90;;
30697;SDS011;17448;47.200;10.902;2023-05-07T02:59:09;7.05;;;2.80;;
30697;SDS011;17448;47.200;10.902;2023-05-07T03:01:39;7.63;;;2.83;;
30697;SDS011;17448;47.200;10.902;2023-05-07T03:04:08;5.90;;;3.03;;
30697;SDS011;17448;47.200;10.902;2023-05-07T03:06:34;6.72;;;3.22;;
30697;SDS011;17448;47.200;10.902;2023-05-07T03:09:00;5.47;;;2.85;;
30697;SDS011;17448;47.200;10.902;2023-05-07T03:11:26;4.20;;;3.17;;
30697;SDS011;17448;47.200;10.902;2023-05-07T03:13:52;5.95;;;2.85;;
30697;SDS011;17448;47.200;10.902;2023-05-07T03:16:20;3.47;;;2.90;;
30697;SDS011;17448;47.200;10.902;2023-05-07T03:18:46;6.10;;;2.83;;
30697;SDS011;17448;47.200;10.902;2023-05-07T03:21:12;5.05;;;2.90;;
30697;SDS011;17448;47.200;10.902;2023-05-07T03:23:38;8.38;;;2.90;;
30697;SDS011;17448;47.200;10.902;2023-05-07T03:26:05;4.90;;;2.80;;
30697;SDS011;17448;47.200;10.902;2023-05-07T03:28:31;4.20;;;2.53;;
30697;SDS011;17448;47.200;10.902;2023-05-07T03:31:01;4.80;;;2.78;;
30697;SDS011;17448;47.200;10.902;2023-05-07T03:33:29;4.20;;;2.38;;
30697;SDS011;17448;47.200;10.902;2023-05-07T03:35:55;3.55;;;2.58;;
30697;SDS011;17448;47.200;10.902;2023-05-07T03:38:24;3.78;;;2.92;;
30697;SDS011;17448;47.200;10.902;2023-05-07T03:40:50;3.13;;;2.80;;
30697;SDS011;17448;47.200;10.902;2023-05-07T03:43:17;8.77;;;2.63;;
30697;SDS011;17448;47.200;10.902;2023-05-07T03:45:48;4.63;;;2.70;;
30697;SDS011;17448;47.200;10.902;2023-05-07T03:48:19;3.85;;;2.95;;
30697;SDS011;17448;47.200;10.902;2023-05-07T03:50:46;5.10;;;2.63;;
30697;SDS011;17448;47.200;10.902;2023-05-07T03:53:14;3.95;;;2.42;;
30697;SDS011;17448;47.200;10.902;2023-05-07T03:55:41;7.85;;;2.60;;
30697;SDS011;17448;47.200;10.902;2023-05-07T03:58:07;5.80;;;3.20;;
30697;SDS011;17448;47.200;10.902;2023-05-07T04:00:33;7.03;;;3.30;;
30697;SDS011;17448;47.200;10.902;2023-05-07T04:03:06;7.65;;;2.95;;
30697;SDS011;17448;47.200;10.902;2023-05-07T04:05:33;5.30;;;2.50;;
30697;SDS011;17448;47.200;10.902;2023-05-07T04:08:01;8.05;;;2.67;;
30697;SDS011;17448;47.200;10.902;2023-05-07T04:10:36;5.53;;;2.67;;
30697;SDS011;17448;47.200;10.902;2023-05-07T04:13:07;4.30;;;2.97;;
30697;SDS011;17448;47.200;10.902;2023-05-07T04:15:35;2.83;;;2.35;;
30697;SDS011;17448;47.200;10.902;2023-05-07T04:18:04;4.10;;;2.53;;
30697;SDS011;17448;47.200;10.902;2023-05-07T04:20:33;2.42;;;2.13;;
30697;SDS011;17448;47.200;10.902;2023-05-07T04:23:02;3.78;;;2.60;;
30697;SDS011;17448;47.200;10.902;2023-05-07T04:25:29;3.20;;;2.42;;
30697;SDS011;17448;47.200;10.902;2023-05-07T04:28:03;3.65;;;2.13;;
30697;SDS011;17448;47.200;10.902;2023-05-07T04:30:30;4.05;;;2.30;;
30697;SDS011;17448;47.200;10.902;2023-05-07T04:32:56;5.55;;;2.30;;
30697;SDS011;17448;47.200;10.902;2023-05-07T04:35:24;4.90;;;2.67;;
30697;SDS011;17448;47.200;10.902;2023-05-07T04:37:51;4.70;;;2.40;;
30697;SDS011;17448;47.200;10.902;2023-05-07T04:40:17;4.50;;;2.83;;
30697;SDS011;17448;47.200;10.902;2023-05-07T04:42:44;4.18;;;2.40;;
30697;SDS011;17448;47.200;10.902;2023-05-07T04:45:10;2.70;;;2.33;;
30697;SDS011;17448;47.200;10.902;2023-05-07T04:47:39;3.20;;;2.90;;
30697;SDS011;17448;47.200;10.902;2023-05-07T04:50:06;5.60;;;2.38;;
30697;SDS011;17448;47.200;10.902;2023-05-07T04:52:34;6.85;;;2.38;;
30697;SDS011;17448;47.200;10.902;2023-05-07T04:55:00;2.38;;;2.13;;
30697;SDS011;17448;47.200;10.902;2023-05-07T04:57:31;4.22;;;2.40;;
30697;SDS011;17448;47.200;10.902;2023-05-07T04:59:57;3.42;;;2.10;;
30697;SDS011;17448;47.200;10.902;2023-05-07T05:02:25;3.15;;;2.40;;
30697;SDS011;17448;47.200;10.902;2023-05-07T05:04:51;3.65;;;2.47;;
30697;SDS011;17448;47.200;10.902;2023-05-07T05:07:17;4.63;;;2.53;;
30697;SDS011;17448;47.200;10.902;2023-05-07T05:09:43;5.18;;;2.40;;
30697;SDS011;17448;47.200;10.902;2023-05-07T05:12:10;4.93;;;2.45;;
30697;SDS011;17448;47.200;10.902;2023-05-07T05:14:37;5.95;;;2.10;;
30697;SDS011;17448;47.200;10.902;2023-05-07T05:17:04;4.15;;;2.30;;
30697;SDS011;17448;47.200;10.902;2023-05-07T05:19:30;4.65;;;2.20;;
30697;SDS011;17448;47.200;10.902;2023-05-07T05:21:56;4.53;;;2.45;;
30697;SDS011;17448;47.200;10.902;2023-05-07T05:24:22;4.22;;;2.38;;
30697;SDS011;17448;47.200;10.902;2023-05-07T05:26:48;3.72;;;2.47;;
30697;SDS011;17448;47.200;10.902;2023-05-07T05:29:15;4.25;;;2.53;;
30697;SDS011;17448;47.200;10.902;2023-05-07T05:31:41;4.10;;;2.20;;
30697;SDS011;17448;47.200;10.902;2023-05-07T05:34:07;6.38;;;2.35;;
30697;SDS011;17448;47.200;10.902;2023-05-07T05:36:35;3.35;;;2.72;;
30697;SDS011;17448;47.200;10.902;2023-05-07T05:39:02;7.70;;;3.47;;
30697;SDS011;17448;47.200;10.902;2023-05-07T05:41:28;5.53;;;2.97;;
30697;SDS011;17448;47.200;10.902;2023-05-07T05:43:55;4.85;;;2.50;;
30697;SDS011;17448;47.200;10.902;2023-05-07T05:46:21;4.45;;;2.65;;
30697;SDS011;17448;47.200;10.902;2023-05-07T05:48:49;4.05;;;2.45;;
30697;SDS011;17448;47.200;10.902;2023-05-07T05:51:15;2.60;;;2.40;;
30697;SDS011;17448;47.200;10.902;2023-05-07T05:53:42;3.45;;;2.58;;
30697;SDS011;17448;47.200;10.902;2023-05-07T05:56:08;9.32;;;3.28;;
30697;SDS011;17448;47.200;10.902;2023-05-07T05:58:36;4.35;;;2.60;;
30697;SDS011;17448;47.200;10.902;2023-05-07T06:01:05;6.15;;;2.83;;
30697;SDS011;17448;47.200;10.902;2023-05-07T06:03:34;5.78;;;2.92;;
30697;SDS011;17448;47.200;10.902;2023-05-07T06:06:04;7.38;;;2.90;;
30697;SDS011;17448;47.200;10.902;2023-05-07T06:08:31;5.38;;;3.17;;
30697;SDS011;17448;47.200;10.902;2023-05-07T06:10:58;6.22;;;4.43;;
30697;SDS011;17448;47.200;10.902;2023-05-07T06:13:25;5.53;;;4.10;;
30697;SDS011;17448;47.200;10.902;2023-05-07T06:15:51;5.72;;;3.40;;
30697;SDS011;17448;47.200;10.902;2023-05-07T06:18:17;9.90;;;3.75;;
30697;SDS011;17448;47.200;10.902;2023-05-07T06:20:43;5.13;;;2.90;;
30697;SDS011;17448;47.200;10.902;2023-05-07T06:23:18;8.57;;;2.92;;
30697;SDS011;17448;47.200;10.902;2023-05-07T06:25:48;5.47;;;3.17;;
30697;SDS011;17448;47.200;10.902;2023-05-07T06:28:16;4.50;;;3.30;;
30697;SDS011;17448;47.200;10.902;2023-05-07T06:30:42;5.25;;;3.30;;
30697;SDS011;17448;47.200;10.902;2023-05-07T06:33:08;6.60;;;4.10;;
30697;SDS011;17448;47.200;10.902;2023-05-07T06:35:34;5.32;;;4.28;;
30697;SDS011;17448;47.200;10.902;2023-05-07T06:38:01;8.02;;;4.75;;
30697;SDS011;17448;47.200;10.902;2023-05-07T06:40:28;6.82;;;3.60;;
30697;SDS011;17448;47.200;10.902;2023-05-07T06:42:57;4.03;;;2.92;;
30697;SDS011;17448;47.200;10.902;2023-05-07T06:45:33;5.65;;;3.33;;
30697;SDS011;17448;47.200;10.902;2023-05-07T06:48:00;4.88;;;3.10;;
30697;SDS011;17448;47.200;10.902;2023-05-07T06:50:29;4.72;;;3.08;;
30697;SDS011;17448;47.200;10.902;2023-05-07T06:52:56;6.60;;;3.00;;
30697;SDS011;17448;47.200;10.902;2023-05-07T06:55:23;4.35;;;2.75;;
30697;SDS011;17448;47.200;10.902;2023-05-07T06:57:50;5.80;;;2.72;;
30697;SDS011;17448;47.200;10.902;2023-05-07T07:00:17;3.15;;;2.88;;
30697;SDS011;17448;47.200;10.902;2023-05-07T07:02:49;2.85;;;2.15;;
30697;SDS011;17448;47.200;10.902;2023-05-07T07:05:19;2.78;;;2.15;;
30697;SDS011;17448;47.200;10.902;2023-05-07T07:07:45;2.53;;;2.00;;
30697;SDS011;17448;47.200;10.902;2023-05-07T07:10:21;6.45;;;2.35;;
30697;SDS011;17448;47.200;10.902;2023-05-07T07:12:49;3.60;;;2.17;;
30697;SDS011;17448;47.200;10.902;2023-05-07T07:15:18;3.10;;;2.20;;
30697;SDS011;17448;47.200;10.902;2023-05-07T07:17:46;3.60;;;2.10;;
30697;SDS011;17448;47.200;10.902;2023-05-07T07:20:12;5.03;;;2.20;;
30697;SDS011;17448;47.200;10.902;2023-05-07T07:22:41;4.45;;;2.45;;
30697;SDS011;17448;47.200;10.902;2023-05-07T07:25:07;2.90;;;2.10;;
30697;SDS011;17448;47.200;10.902;2023-05-07T07:27:34;3.22;;;2.15;;
30697;SDS011;17448;47.200;10.902;2023-05-07T07:30:01;4.72;;;2.35;;
30697;SDS011;17448;47.200;10.902;2023-05-07T07:32:31;5.25;;;2.33;;
30697;SDS011;17448;47.200;10.902;2023-05-07T07:34:58;2.25;;;1.90;;
30697;SDS011;17448;47.200;10.902;2023-05-07T07:37:26;2.92;;;2.00;;
30697;SDS011;17448;47.200;10.902;2023-05-07T07:39:52;5.65;;;1.75;;
30697;SDS011;17448;47.200;10.902;2023-05-07T07:42:20;2.97;;;2.13;;
30697;SDS011;17448;47.200;10.902;2023-05-07T07:44:46;3.03;;;1.90;;
30697;SDS011;17448;47.200;10.902;2023-05-07T07:47:14;2.33;;;1.70;;
30697;SDS011;17448;47.200;10.902;2023-05-07T07:49:42;3.40;;;2.25;;
30697;SDS011;17448;47.200;10.902;2023-05-07T07:52:09;2.78;;;2.10;;
30697;SDS011;17448;47.200;10.902;2023-05-07T07:54:37;6.70;;;2.97;;
30697;SDS011;17448;47.200;10.902;2023-05-07T07:57:05;5.90;;;3.70;;
30697;SDS011;17448;47.200;10.902;2023-05-07T07:59:35;4.85;;;2.22;;
30697;SDS011;17448;47.200;10.902;2023-05-07T08:02:03;3.22;;;1.98;;
30697;SDS011;17448;47.200;10.902;2023-05-07T08:07:32;4.35;;;2.58;;
30697;SDS011;17448;47.200;10.902;2023-05-07T08:09:58;2.67;;;1.95;;
30697;SDS011;17448;47.200;10.902;2023-05-07T08:15:13;3.22;;;2.53;;
30697;SDS011;17448;47.200;10.902;2023-05-07T08:17:40;4.18;;;2.17;;
30697;SDS011;17448;47.200;10.902;2023-05-07T08:20:06;3.10;;;2.05;;
30697;SDS011;17448;47.200;10.902;2023-05-07T08:22:34;2.53;;;1.75;;
30697;SDS011;17448;47.200;10.902;2023-05-07T08:25:01;4.00;;;2.10;;
30697;SDS011;17448;47.200;10.902;2023-05-07T08:27:28;2.15;;;1.58;;
30697;SDS011;17448;47.200;10.902;2023-05-07T08:29:55;3.63;;;1.80;;
30697;SDS011;17448;47.200;10.902;2023-05-07T08:32:22;5.47;;;2.20;;
30697;SDS011;17448;47.200;10.902;2023-05-07T08:34:48;4.43;;;1.67;;
30697;SDS011;17448;47.200;10.902;2023-05-07T08:37:15;3.60;;;2.13;;
30697;SDS011;17448;47.200;10.902;2023-05-07T08:39:44;4.45;;;2.03;;
30697;SDS011;17448;47.200;10.902;2023-05-07T08:42:17;2.33;;;1.80;;
30697;SDS011;17448;47.200;10.902;2023-05-07T08:44:45;3.83;;;2.00;;
30697;SDS011;17448;47.200;10.902;2023-05-07T08:47:17;3.75;;;2.10;;
30697;SDS011;17448;47.200;10.902;2023-05-07T08:49:44;3.60;;;2.05;;
30697;SDS011;17448;47.200;10.902;2023-05-07T08:52:14;5.25;;;2.20;;
30697;SDS011;17448;47.200;10.902;2023-05-07T08:54:40;3.50;;;2.03;;
30697;SDS011;17448;47.200;10.902;2023-05-07T08:57:09;2.30;;;1.90;;
30697;SDS011;17448;47.200;10.902;2023-05-07T08:59:38;2.90;;;2.05;;
30697;SDS011;17448;47.200;10.902;2023-05-07T09:02:05;3.17;;;1.48;;
30697;SDS011;17448;47.200;10.902;2023-05-07T09:04:33;1.42;;;1.30;;
30697;SDS011;17448;47.200;10.902;2023-05-07T09:06:59;2.20;;;1.38;;
30697;SDS011;17448;47.200;10.902;2023-05-07T09:09:34;2.75;;;1.60;;
30697;SDS011;17448;47.200;10.902;2023-05-07T09:12:03;2.00;;;1.58;;
30697;SDS011;17448;47.200;10.902;2023-05-07T09:14:32;2.40;;;1.30;;
30697;SDS011;17448;47.200;10.902;2023-05-07T09:16:59;2.42;;;1.60;;
30697;SDS011;17448;47.200;10.902;2023-05-07T09:19:25;1.90;;;1.45;;
30697;SDS011;17448;47.200;10.902;2023-05-07T09:21:57;1.60;;;1.50;;
30697;SDS011;17448;47.200;10.902;2023-05-07T09:24:24;2.97;;;1.48;;
30697;SDS011;17448;47.200;10.902;2023-05-07T09:26:52;2.13;;;1.48;;
30697;SDS011;17448;47.200;10.902;2023-05-07T09:29:18;1.60;;;1.30;;
30697;SDS011;17448;47.200;10.902;2023-05-07T09:31:44;2.42;;;1.55;;
30697;SDS011;17448;47.200;10.902;2023-05-07T09:34:14;1.50;;;1.40;;
30697;SDS011;17448;47.200;10.902;2023-05-07T09:36:43;2.08;;;1.30;;
30697;SDS011;17448;47.200;10.902;2023-05-07T09:39:10;1.85;;;1.30;;
30697;SDS011;17448;47.200;10.902;2023-05-07T09:41:45;2.08;;;1.30;;
30697;SDS011;17448;47.200;10.902;2023-05-07T09:44:18;1.88;;;1.40;;
30697;SDS011;17448;47.200;10.902;2023-05-07T09:46:52;3.38;;;1.25;;
30697;SDS011;17448;47.200;10.902;2023-05-07T09:49:24;2.80;;;1.08;;
30697;SDS011;17448;47.200;10.902;2023-05-07T09:51:59;2.10;;;1.27;;
30697;SDS011;17448;47.200;10.902;2023-05-07T09:54:27;2.45;;;1.02;;
30697;SDS011;17448;47.200;10.902;2023-05-07T09:56:57;1.10;;;1.10;;
30697;SDS011;17448;47.200;10.902;2023-05-07T09:59:26;1.20;;;1.10;;
30697;SDS011;17448;47.200;10.902;2023-05-07T10:01:53;1.77;;;1.25;;
30697;SDS011;17448;47.200;10.902;2023-05-07T10:04:23;1.35;;;1.00;;
30697;SDS011;17448;47.200;10.902;2023-05-07T10:06:51;1.20;;;1.10;;
30697;SDS011;17448;47.200;10.902;2023-05-07T10:09:19;1.98;;;1.40;;
30697;SDS011;17448;47.200;10.902;2023-05-07T10:11:45;4.05;;;1.40;;
30697;SDS011;17448;47.200;10.902;2023-05-07T10:14:12;1.77;;;1.20;;
30697;SDS011;17448;47.200;10.902;2023-05-07T10:16:40;2.63;;;1.35;;
30697;SDS011;17448;47.200;10.902;2023-05-07T10:19:11;2.17;;;1.20;;
30697;SDS011;17448;47.200;10.902;2023-05-07T10:21:42;1.15;;;0.98;;
30697;SDS011;17448;47.200;10.902;2023-05-07T10:24:16;1.50;;;1.10;;
30697;SDS011;17448;47.200;10.902;2023-05-07T10:26:45;1.13;;;1.02;;
30697;SDS011;17448;47.200;10.902;2023-05-07T10:32:14;1.13;;;0.98;;
30697;SDS011;17448;47.200;10.902;2023-05-07T10:34:44;1.55;;;1.20;;
30697;SDS011;17448;47.200;10.902;2023-05-07T10:37:11;3.15;;;1.52;;
30697;SDS011;17448;47.200;10.902;2023-05-07T10:39:38;1.13;;;1.00;;
30697;SDS011;17448;47.200;10.902;2023-05-07T10:42:12;1.05;;;0.95;;
30697;SDS011;17448;47.200;10.902;2023-05-07T10:44:44;1.15;;;0.98;;
30697;SDS011;17448;47.200;10.902;2023-05-07T10:47:16;1.95;;;1.52;;
30697;SDS011;17448;47.200;10.902;2023-05-07T10:52:21;1.60;;;1.15;;
30697;SDS011;17448;47.200;10.902;2023-05-07T10:57:54;2.88;;;0.88;;
30697;SDS011;17448;47.200;10.902;2023-05-07T11:05:31;3.22;;;1.35;;
30697;SDS011;17448;47.200;10.902;2023-05-07T11:08:21;2.22;;;1.15;;
30697;SDS011;17448;47.200;10.902;2023-05-07T11:10:54;1.40;;;1.08;;
30697;SDS011;17448;47.200;10.902;2023-05-07T11:13:43;3.40;;;1.23;;
30697;SDS011;17448;47.200;10.902;2023-05-07T11:16:21;2.53;;;1.30;;
30697;SDS011;17448;47.200;10.902;2023-05-07T11:18:54;2.97;;;1.52;;
30697;SDS011;17448;47.200;10.902;2023-05-07T11:21:33;1.65;;;1.55;;
30697;SDS011;17448;47.200;10.902;2023-05-07T11:24:23;1.77;;;1.40;;
30697;SDS011;17448;47.200;10.902;2023-05-07T11:26:54;1.40;;;1.30;;
30697;SDS011;17448;47.200;10.902;2023-05-07T11:29:22;2.08;;;1.50;;
30697;SDS011;17448;47.200;10.902;2023-05-07T11:31:55;1.77;;;1.47;;
30697;SDS011;17448;47.200;10.902;2023-05-07T11:34:26;1.75;;;1.10;;
30697;SDS011;17448;47.200;10.902;2023-05-07T11:36:55;2.42;;;1.50;;
30697;SDS011;17448;47.200;10.902;2023-05-07T11:39:32;3.13;;;1.30;;
30697;SDS011;17448;47.200;10.902;2023-05-07T11:42:00;1.50;;;1.20;;
30697;SDS011;17448;47.200;10.902;2023-05-07T11:47:25;2.25;;;1.52;;
30697;SDS011;17448;47.200;10.902;2023-05-07T11:49:52;1.45;;;0.90;;
30697;SDS011;17448;47.200;10.902;2023-05-07T11:52:20;1.10;;;0.82;;
30697;SDS011;17448;47.200;10.902;2023-05-07T11:54:55;2.30;;;1.13;;
30697;SDS011;17448;47.200;10.902;2023-05-07T11:57:22;1.08;;;0.98;;
30697;SDS011;17448;47.200;10.902;2023-05-07T11:59:58;0.93;;;0.77;;
30697;SDS011;17448;47.200;10.902;2023-05-07T12:02:25;6.38;;;1.33;;
30697;SDS011;17448;47.200;10.902;2023-05-07T12:04:53;2.08;;;1.45;;
30697;SDS011;17448;47.200;10.902;2023-05-07T12:07:20;5.95;;;1.80;;
30697;SDS011;17448;47.200;10.902;2023-05-07T12:09:46;1.30;;;1.10;;
30697;SDS011;17448;47.200;10.902;2023-05-07T12:12:13;1.42;;;1.08;;
30697;SDS011;17448;47.200;10.902;2023-05-07T12:14:41;3.38;;;1.30;;
30697;SDS011;17448;47.200;10.902;2023-05-07T12:17:08;1.77;;;1.30;;
30697;SDS011;17448;47.200;10.902;2023-05-07T12:19:34;1.42;;;1.00;;
30697;SDS011;17448;47.200;10.902;2023-05-07T12:22:02;1.90;;;1.05;;
30697;SDS011;17448;47.200;10.902;2023-05-07T12:24:28;3.75;;;1.20;;
30697;SDS011;17448;47.200;10.902;2023-05-07T12:26:54;1.48;;;1.13;;
30697;SDS011;17448;47.200;10.902;2023-05-07T12:29:21;5.03;;;1.75;;
30697;SDS011;17448;47.200;10.902;2023-05-07T12:31:50;2.85;;;1.30;;
30697;SDS011;17448;47.200;10.902;2023-05-07T12:34:17;2.78;;;1.48;;
30697;SDS011;17448;47.200;10.902;2023-05-07T12:36:43;3.20;;;1.30;;
30697;SDS011;17448;47.200;10.902;2023-05-07T12:39:09;1.48;;;0.95;;
30697;SDS011;17448;47.200;10.902;2023-05-07T12:41:36;2.75;;;1.10;;
30697;SDS011;17448;47.200;10.902;2023-05-07T12:44:03;2.55;;;1.30;;
30697;SDS011;17448;47.200;10.902;2023-05-07T12:46:30;1.45;;;1.17;;
30697;SDS011;17448;47.200;10.902;2023-05-07T12:48:57;1.48;;;1.05;;
30697;SDS011;17448;47.200;10.902;2023-05-07T12:51:23;2.33;;;1.20;;
30697;SDS011;17448;47.200;10.902;2023-05-07T12:53:49;2.35;;;0.93;;
30697;SDS011;17448;47.200;10.902;2023-05-07T12:56:16;2.88;;;1.23;;
30697;SDS011;17448;47.200;10.902;2023-05-07T12:58:42;3.17;;;1.15;;
30697;SDS011;17448;47.200;10.902;2023-05-07T13:01:08;1.63;;;1.35;;
30697;SDS011;17448;47.200;10.902;2023-05-07T13:03:35;2.10;;;1.10;;
30697;SDS011;17448;47.200;10.902;2023-05-07T13:06:04;4.57;;;1.50;;
30697;SDS011;17448;47.200;10.902;2023-05-07T13:08:33;1.52;;;1.40;;
30697;SDS011;17448;47.200;10.902;2023-05-07T13:11:01;1.67;;;1.40;;
30697;SDS011;17448;47.200;10.902;2023-05-07T13:13:31;3.78;;;1.45;;
30697;SDS011;17448;47.200;10.902;2023-05-07T13:15:57;3.13;;;1.48;;
30697;SDS011;17448;47.200;10.902;2023-05-07T13:18:24;1.45;;;1.23;;
30697;SDS011;17448;47.200;10.902;2023-05-07T13:20:51;1.80;;;1.40;;
30697;SDS011;17448;47.200;10.902;2023-05-07T13:23:17;3.05;;;1.15;;
30697;SDS011;17448;47.200;10.902;2023-05-07T13:25:44;1.30;;;1.20;;
30697;SDS011;17448;47.200;10.902;2023-05-07T13:28:10;1.48;;;1.20;;
30697;SDS011;17448;47.200;10.902;2023-05-07T13:30:37;3.20;;;1.50;;
30697;SDS011;17448;47.200;10.902;2023-05-07T13:33:03;1.50;;;1.20;;
30697;SDS011;17448;47.200;10.902;2023-05-07T13:35:29;1.98;;;1.40;;
30697;SDS011;17448;47.200;10.902;2023-05-07T13:37:55;1.33;;;1.23;;
30697;SDS011;17448;47.200;10.902;2023-05-07T13:40:21;2.00;;;1.20;;
30697;SDS011;17448;47.200;10.902;2023-05-07T13:42:48;4.53;;;1.27;;
30697;SDS011;17448;47.200;10.902;2023-05-07T13:45:16;2.70;;;1.10;;
30697;SDS011;17448;47.200;10.902;2023-05-07T13:47:42;1.98;;;1.20;;
30697;SDS011;17448;47.200;10.902;2023-05-07T13:50:09;1.70;;;1.20;;
30697;SDS011;17448;47.200;10.902;2023-05-07T13:52:36;3.88;;;1.00;;
30697;SDS011;17448;47.200;10.902;2023-05-07T13:55:03;3.90;;;1.30;;
30697;SDS011;17448;47.200;10.902;2023-05-07T13:57:29;1.38;;;1.00;;
30697;SDS011;17448;47.200;10.902;2023-05-07T13:59:55;1.98;;;1.20;;
30697;SDS011;17448;47.200;10.902;2023-05-07T14:02:21;1.83;;;0.80;;
30697;SDS011;17448;47.200;10.902;2023-05-07T14:04:47;2.42;;;1.00;;
30697;SDS011;17448;47.200;10.902;2023-05-07T14:07:13;2.67;;;1.30;;
30697;SDS011;17448;47.200;10.902;2023-05-07T14:09:40;4.43;;;1.30;;
30697;SDS011;17448;47.200;10.902;2023-05-07T14:12:06;2.20;;;1.10;;
30697;SDS011;17448;47.200;10.902;2023-05-07T14:14:32;1.02;;;0.93;;
30697;SDS011;17448;47.200;10.902;2023-05-07T14:16:58;3.65;;;1.50;;
30697;SDS011;17448;47.200;10.902;2023-05-07T14:19:25;1.60;;;1.23;;
30697;SDS011;17448;47.200;10.902;2023-05-07T14:21:51;2.83;;;1.25;;
30697;SDS011;17448;47.200;10.902;2023-05-07T14:24:17;4.85;;;1.20;;
30697;SDS011;17448;47.200;10.902;2023-05-07T14:26:43;1.65;;;1.08;;
30697;SDS011;17448;47.200;10.902;2023-05-07T14:29:10;3.95;;;1.38;;
30697;SDS011;17448;47.200;10.902;2023-05-07T14:31:36;3.63;;;1.15;;
30697;SDS011;17448;47.200;10.902;2023-05-07T14:34:02;2.58;;;1.27;;
30697;SDS011;17448;47.200;10.902;2023-05-07T14:36:29;1.98;;;1.25;;
30697;SDS011;17448;47.200;10.902;2023-05-07T14:38:56;1.20;;;0.93;;
30697;SDS011;17448;47.200;10.902;2023-05-07T14:41:24;1.58;;;1.27;;
30697;SDS011;17448;47.200;10.902;2023-05-07T14:43:50;1.63;;;1.17;;
30697;SDS011;17448;47.200;10.902;2023-05-07T14:46:19;2.70;;;1.00;;
30697;SDS011;17448;47.200;10.902;2023-05-07T14:48:46;2.75;;;0.90;;
30697;SDS011;17448;47.200;10.902;2023-05-07T14:51:12;1.80;;;1.05;;
30697;SDS011;17448;47.200;10.902;2023-05-07T14:53:38;1.40;;;1.02;;
30697;SDS011;17448;47.200;10.902;2023-05-07T14:56:05;4.68;;;1.13;;
30697;SDS011;17448;47.200;10.902;2023-05-07T14:58:31;1.27;;;0.80;;
30697;SDS011;17448;47.200;10.902;2023-05-07T15:00:57;2.13;;;1.10;;